sensor_id;sensor_type;location;lat;lon;timestamp;P1;durP1;ratioP1;P2;durP2;ratioP2
29006;SDS011;16104;48.642;9.008;2022-12-29T00:01:34;4.80;;;1.60;;
29006;SDS011;16104;48.642;9.008;2022-12-29T00:06:31;5.95;;;2.38;;
29006;SDS011;16104;48.642;9.008;2022-12-29T00:11:27;4.55;;;2.35;;
29006;SDS011;16104;48.642;9.008;2022-12-29T00:16:22;8.02;;;2.97;;
29006;SDS011;16104;48.642;9.008;2022-12-29T00:21:19;8.73;;;5.07;;
29006;SDS011;16104;48.642;9.008;2022-12-29T00:26:35;4.53;;;2.10;;
29006;SDS011;16104;48.642;9.008;2022-12-29T00:31:49;2.88;;;1.52;;
29006;SDS011;16104;48.642;9.008;2022-12-29T00:37:03;2.72;;;1.50;;
29006;SDS011;16104;48.642;9.008;2022-12-29T00:42:05;1.67;;;1.40;;
29006;SDS011;16104;48.642;9.008;2022-12-29T00:47:20;4.07;;;1.45;;
29006;SDS011;16104;48.642;9.008;2022-12-29T00:52:15;3.63;;;1.50;;
29006;SDS011;16104;48.642;9.008;2022-12-29T00:57:11;3.88;;;1.50;;
29006;SDS011;16104;48.642;9.008;2022-12-29T02:03:11;1.88;;;1.02;;
29006;SDS011;16104;48.642;9.008;2022-12-29T02:08:07;4.72;;;1.20;;
29006;SDS011;16104;48.642;9.008;2022-12-29T02:13:04;2.78;;;1.08;;
29006;SDS011;16104;48.642;9.008;2022-12-29T03:14:38;2.83;;;1.05;;
29006;SDS011;16104;48.642;9.008;2022-12-29T04:00:43;2.72;;;1.23;;
29006;SDS011;16104;48.642;9.008;2022-12-29T04:05:38;3.40;;;1.20;;
29006;SDS011;16104;48.642;9.008;2022-12-29T04:10:34;1.77;;;1.30;;
29006;SDS011;16104;48.642;9.008;2022-12-29T04:15:29;5.38;;;2.13;;
29006;SDS011;16104;48.642;9.008;2022-12-29T04:20:25;2.60;;;1.65;;
29006;SDS011;16104;48.642;9.008;2022-12-29T04:25:39;4.07;;;1.55;;
29006;SDS011;16104;48.642;9.008;2022-12-29T04:30:34;1.83;;;1.20;;
29006;SDS011;16104;48.642;9.008;2022-12-29T04:35:30;5.40;;;1.60;;
29006;SDS011;16104;48.642;9.008;2022-12-29T04:40:25;5.13;;;1.65;;
29006;SDS011;16104;48.642;9.008;2022-12-29T04:45:21;1.80;;;1.40;;
29006;SDS011;16104;48.642;9.008;2022-12-29T04:50:16;2.05;;;1.38;;
29006;SDS011;16104;48.642;9.008;2022-12-29T04:55:12;2.33;;;1.30;;
29006;SDS011;16104;48.642;9.008;2022-12-29T05:00:08;2.28;;;1.52;;
29006;SDS011;16104;48.642;9.008;2022-12-29T05:05:04;2.38;;;1.48;;
29006;SDS011;16104;48.642;9.008;2022-12-29T05:10:01;2.70;;;1.50;;
29006;SDS011;16104;48.642;9.008;2022-12-29T05:14:56;1.80;;;1.40;;
29006;SDS011;16104;48.642;9.008;2022-12-29T05:19:51;2.13;;;1.10;;
29006;SDS011;16104;48.642;9.008;2022-12-29T05:24:47;3.00;;;1.38;;
29006;SDS011;16104;48.642;9.008;2022-12-29T05:29:42;2.20;;;1.60;;
29006;SDS011;16104;48.642;9.008;2022-12-29T05:34:38;3.75;;;1.70;;
29006;SDS011;16104;48.642;9.008;2022-12-29T05:39:34;4.00;;;1.25;;
29006;SDS011;16104;48.642;9.008;2022-12-29T05:44:29;1.38;;;1.20;;
29006;SDS011;16104;48.642;9.008;2022-12-29T05:49:25;3.38;;;1.30;;
29006;SDS011;16104;48.642;9.008;2022-12-29T05:54:20;2.03;;;1.35;;
29006;SDS011;16104;48.642;9.008;2022-12-29T05:59:15;2.83;;;1.40;;
29006;SDS011;16104;48.642;9.008;2022-12-29T06:04:11;1.38;;;1.23;;
29006;SDS011;16104;48.642;9.008;2022-12-29T06:09:09;2.08;;;1.17;;
29006;SDS011;16104;48.642;9.008;2022-12-29T06:14:05;2.55;;;1.38;;
29006;SDS011;16104;48.642;9.008;2022-12-29T06:19:01;4.68;;;1.67;;
29006;SDS011;16104;48.642;9.008;2022-12-29T06:23:56;3.90;;;1.63;;
29006;SDS011;16104;48.642;9.008;2022-12-29T06:28:52;3.95;;;1.30;;
29006;SDS011;16104;48.642;9.008;2022-12-29T06:33:47;2.67;;;1.40;;
29006;SDS011;16104;48.642;9.008;2022-12-29T06:38:43;4.78;;;1.50;;
29006;SDS011;16104;48.642;9.008;2022-12-29T06:43:38;3.75;;;1.60;;
29006;SDS011;16104;48.642;9.008;2022-12-29T06:48:34;3.20;;;1.40;;
29006;SDS011;16104;48.642;9.008;2022-12-29T06:53:30;4.03;;;1.52;;
29006;SDS011;16104;48.642;9.008;2022-12-29T06:58:25;2.65;;;1.52;;
29006;SDS011;16104;48.642;9.008;2022-12-29T07:03:21;4.55;;;1.63;;
29006;SDS011;16104;48.642;9.008;2022-12-29T07:08:16;2.92;;;1.88;;
29006;SDS011;16104;48.642;9.008;2022-12-29T07:13:12;2.22;;;1.23;;
29006;SDS011;16104;48.642;9.008;2022-12-29T07:18:07;7.10;;;1.65;;
29006;SDS011;16104;48.642;9.008;2022-12-29T07:23:03;2.22;;;1.13;;
29006;SDS011;16104;48.642;9.008;2022-12-29T07:27:58;2.47;;;1.30;;
29006;SDS011;16104;48.642;9.008;2022-12-29T07:32:54;4.20;;;1.27;;
29006;SDS011;16104;48.642;9.008;2022-12-29T07:37:49;3.30;;;1.65;;
29006;SDS011;16104;48.642;9.008;2022-12-29T07:42:45;5.00;;;1.40;;
29006;SDS011;16104;48.642;9.008;2022-12-29T07:47:40;2.33;;;1.77;;
29006;SDS011;16104;48.642;9.008;2022-12-29T07:52:36;3.50;;;2.47;;
29006;SDS011;16104;48.642;9.008;2022-12-29T07:57:31;4.40;;;3.50;;
29006;SDS011;16104;48.642;9.008;2022-12-29T08:02:27;4.00;;;2.20;;
29006;SDS011;16104;48.642;9.008;2022-12-29T08:07:23;2.03;;;1.70;;
29006;SDS011;16104;48.642;9.008;2022-12-29T08:12:19;3.28;;;1.60;;
29006;SDS011;16104;48.642;9.008;2022-12-29T08:17:14;3.33;;;1.70;;
29006;SDS011;16104;48.642;9.008;2022-12-29T08:22:10;3.33;;;1.77;;
29006;SDS011;16104;48.642;9.008;2022-12-29T08:27:05;2.17;;;1.58;;
29006;SDS011;16104;48.642;9.008;2022-12-29T08:32:01;4.70;;;1.30;;
29006;SDS011;16104;48.642;9.008;2022-12-29T08:36:56;2.63;;;1.45;;
29006;SDS011;16104;48.642;9.008;2022-12-29T08:41:54;2.42;;;1.55;;
29006;SDS011;16104;48.642;9.008;2022-12-29T08:46:49;4.38;;;1.65;;
29006;SDS011;16104;48.642;9.008;2022-12-29T08:51:45;2.50;;;1.42;;
29006;SDS011;16104;48.642;9.008;2022-12-29T08:56:40;2.70;;;1.27;;
29006;SDS011;16104;48.642;9.008;2022-12-29T09:01:36;2.75;;;1.40;;
29006;SDS011;16104;48.642;9.008;2022-12-29T09:06:35;2.72;;;1.65;;
29006;SDS011;16104;48.642;9.008;2022-12-29T09:11:30;4.68;;;1.45;;
29006;SDS011;16104;48.642;9.008;2022-12-29T09:16:26;2.38;;;1.30;;
29006;SDS011;16104;48.642;9.008;2022-12-29T09:21:21;3.92;;;1.20;;
29006;SDS011;16104;48.642;9.008;2022-12-29T09:26:17;3.35;;;1.40;;
29006;SDS011;16104;48.642;9.008;2022-12-29T09:31:13;2.30;;;1.48;;
29006;SDS011;16104;48.642;9.008;2022-12-29T09:36:08;4.55;;;1.30;;
29006;SDS011;16104;48.642;9.008;2022-12-29T09:41:11;6.38;;;1.80;;
29006;SDS011;16104;48.642;9.008;2022-12-29T09:46:32;4.50;;;1.67;;
29006;SDS011;16104;48.642;9.008;2022-12-29T09:51:32;2.67;;;1.67;;
29006;SDS011;16104;48.642;9.008;2022-12-29T09:56:29;2.55;;;1.25;;
29006;SDS011;16104;48.642;9.008;2022-12-29T10:01:36;2.78;;;1.30;;
29006;SDS011;16104;48.642;9.008;2022-12-29T10:17:18;4.13;;;1.30;;
29006;SDS011;16104;48.642;9.008;2022-12-29T10:27:33;4.63;;;1.50;;
29006;SDS011;16104;48.642;9.008;2022-12-29T10:42:55;11.13;;;1.98;;
29006;SDS011;16104;48.642;9.008;2022-12-29T10:47:57;2.15;;;1.58;;
29006;SDS011;16104;48.642;9.008;2022-12-29T10:52:58;4.32;;;1.65;;
29006;SDS011;16104;48.642;9.008;2022-12-29T10:57:59;2.45;;;1.38;;
29006;SDS011;16104;48.642;9.008;2022-12-29T11:08:11;3.15;;;1.33;;
29006;SDS011;16104;48.642;9.008;2022-12-29T11:23:40;3.92;;;1.50;;
29006;SDS011;16104;48.642;9.008;2022-12-29T11:28:37;3.10;;;1.70;;
29006;SDS011;16104;48.642;9.008;2022-12-29T11:33:34;3.35;;;1.33;;
29006;SDS011;16104;48.642;9.008;2022-12-29T11:38:33;2.75;;;1.25;;
29006;SDS011;16104;48.642;9.008;2022-12-29T11:48:29;2.75;;;1.10;;
29006;SDS011;16104;48.642;9.008;2022-12-29T11:53:41;1.15;;;1.00;;
29006;SDS011;16104;48.642;9.008;2022-12-29T11:58:40;4.75;;;1.40;;
29006;SDS011;16104;48.642;9.008;2022-12-29T12:03:37;4.53;;;1.77;;
29006;SDS011;16104;48.642;9.008;2022-12-29T12:08:39;2.55;;;1.50;;
29006;SDS011;16104;48.642;9.008;2022-12-29T12:13:43;2.40;;;1.40;;
29006;SDS011;16104;48.642;9.008;2022-12-29T12:29:25;5.45;;;1.50;;
29006;SDS011;16104;48.642;9.008;2022-12-29T12:34:24;2.03;;;1.60;;
29006;SDS011;16104;48.642;9.008;2022-12-29T12:39:35;4.93;;;1.60;;
29006;SDS011;16104;48.642;9.008;2022-12-29T13:00:16;2.08;;;1.50;;
29006;SDS011;16104;48.642;9.008;2022-12-29T13:05:20;1.73;;;1.42;;
29006;SDS011;16104;48.642;9.008;2022-12-29T13:10:42;2.83;;;1.17;;
29006;SDS011;16104;48.642;9.008;2022-12-29T13:15:58;2.35;;;1.55;;
29006;SDS011;16104;48.642;9.008;2022-12-29T13:26:16;3.75;;;1.45;;
29006;SDS011;16104;48.642;9.008;2022-12-29T13:31:30;3.40;;;1.70;;
29006;SDS011;16104;48.642;9.008;2022-12-29T13:36:36;2.22;;;1.55;;
29006;SDS011;16104;48.642;9.008;2022-12-29T13:41:43;4.03;;;1.63;;
29006;SDS011;16104;48.642;9.008;2022-12-29T13:46:42;4.22;;;1.98;;
29006;SDS011;16104;48.642;9.008;2022-12-29T13:51:47;3.07;;;1.77;;
29006;SDS011;16104;48.642;9.008;2022-12-29T13:56:52;3.45;;;1.70;;
29006;SDS011;16104;48.642;9.008;2022-12-29T14:02:03;2.70;;;1.58;;
29006;SDS011;16104;48.642;9.008;2022-12-29T14:07:13;2.63;;;1.60;;
29006;SDS011;16104;48.642;9.008;2022-12-29T14:12:22;4.75;;;1.90;;
29006;SDS011;16104;48.642;9.008;2022-12-29T14:17:25;3.28;;;1.60;;
29006;SDS011;16104;48.642;9.008;2022-12-29T14:22:24;3.10;;;1.92;;
29006;SDS011;16104;48.642;9.008;2022-12-29T14:42:20;4.60;;;1.50;;
29006;SDS011;16104;48.642;9.008;2022-12-29T14:47:36;2.92;;;1.70;;
29006;SDS011;16104;48.642;9.008;2022-12-29T14:52:56;2.25;;;1.50;;
29006;SDS011;16104;48.642;9.008;2022-12-29T14:57:57;2.17;;;1.70;;
29006;SDS011;16104;48.642;9.008;2022-12-29T15:03:04;3.25;;;1.27;;
29006;SDS011;16104;48.642;9.008;2022-12-29T15:08:13;3.42;;;1.52;;
29006;SDS011;16104;48.642;9.008;2022-12-29T15:13:17;2.03;;;1.70;;
29006;SDS011;16104;48.642;9.008;2022-12-29T15:18:27;2.97;;;1.40;;
29006;SDS011;16104;48.642;9.008;2022-12-29T15:23:24;2.10;;;1.40;;
29006;SDS011;16104;48.642;9.008;2022-12-29T15:28:21;5.03;;;2.00;;
29006;SDS011;16104;48.642;9.008;2022-12-29T15:33:17;4.15;;;1.70;;
29006;SDS011;16104;48.642;9.008;2022-12-29T15:38:23;2.15;;;1.63;;
29006;SDS011;16104;48.642;9.008;2022-12-29T15:48:41;4.07;;;1.65;;
29006;SDS011;16104;48.642;9.008;2022-12-29T15:53:37;2.25;;;1.50;;
29006;SDS011;16104;48.642;9.008;2022-12-29T15:58:40;4.40;;;1.70;;
29006;SDS011;16104;48.642;9.008;2022-12-29T16:03:39;3.58;;;1.48;;
29006;SDS011;16104;48.642;9.008;2022-12-29T16:08:36;2.47;;;1.60;;
29006;SDS011;16104;48.642;9.008;2022-12-29T16:13:38;2.78;;;1.70;;
29006;SDS011;16104;48.642;9.008;2022-12-29T16:18:35;3.85;;;2.00;;
29006;SDS011;16104;48.642;9.008;2022-12-29T16:23:32;2.80;;;1.60;;
29006;SDS011;16104;48.642;9.008;2022-12-29T16:28:35;2.43;;;1.60;;
29006;SDS011;16104;48.642;9.008;2022-12-29T16:33:38;1.70;;;1.42;;
29006;SDS011;16104;48.642;9.008;2022-12-29T16:38:39;4.18;;;1.70;;
29006;SDS011;16104;48.642;9.008;2022-12-29T16:43:36;2.42;;;1.73;;
29006;SDS011;16104;48.642;9.008;2022-12-29T16:48:45;3.53;;;1.70;;
29006;SDS011;16104;48.642;9.008;2022-12-29T16:53:48;3.85;;;1.70;;
29006;SDS011;16104;48.642;9.008;2022-12-29T16:58:46;3.75;;;1.92;;
29006;SDS011;16104;48.642;9.008;2022-12-29T17:03:44;5.05;;;2.70;;
29006;SDS011;16104;48.642;9.008;2022-12-29T17:08:47;5.13;;;2.60;;
29006;SDS011;16104;48.642;9.008;2022-12-29T17:13:43;6.13;;;2.60;;
29006;SDS011;16104;48.642;9.008;2022-12-29T17:18:39;5.05;;;2.65;;
29006;SDS011;16104;48.642;9.008;2022-12-29T17:23:34;3.88;;;2.72;;
29006;SDS011;16104;48.642;9.008;2022-12-29T17:28:30;4.38;;;2.80;;
29006;SDS011;16104;48.642;9.008;2022-12-29T17:33:27;3.88;;;3.10;;
29006;SDS011;16104;48.642;9.008;2022-12-29T17:38:30;3.80;;;2.60;;
29006;SDS011;16104;48.642;9.008;2022-12-29T17:43:28;4.60;;;2.75;;
29006;SDS011;16104;48.642;9.008;2022-12-29T17:48:24;3.63;;;2.88;;
29006;SDS011;16104;48.642;9.008;2022-12-29T17:53:21;3.58;;;2.95;;
29006;SDS011;16104;48.642;9.008;2022-12-29T17:58:23;6.60;;;4.73;;
29006;SDS011;16104;48.642;9.008;2022-12-29T18:03:25;20.48;;;11.10;;
29006;SDS011;16104;48.642;9.008;2022-12-29T18:08:21;32.40;;;18.63;;
29006;SDS011;16104;48.642;9.008;2022-12-29T18:13:21;27.75;;;17.30;;
29006;SDS011;16104;48.642;9.008;2022-12-29T18:18:22;13.77;;;9.85;;
29006;SDS011;16104;48.642;9.008;2022-12-29T18:23:23;9.13;;;6.25;;
29006;SDS011;16104;48.642;9.008;2022-12-29T18:28:23;3.70;;;2.78;;
29006;SDS011;16104;48.642;9.008;2022-12-29T18:33:20;1.88;;;1.50;;
29006;SDS011;16104;48.642;9.008;2022-12-29T18:38:16;2.47;;;1.55;;
29006;SDS011;16104;48.642;9.008;2022-12-29T18:43:12;1.67;;;1.40;;
29006;SDS011;16104;48.642;9.008;2022-12-29T18:48:08;2.90;;;1.55;;
29006;SDS011;16104;48.642;9.008;2022-12-29T18:53:04;2.85;;;1.58;;
29006;SDS011;16104;48.642;9.008;2022-12-29T18:57:59;1.65;;;0.95;;
29006;SDS011;16104;48.642;9.008;2022-12-29T19:02:55;3.03;;;1.27;;
29006;SDS011;16104;48.642;9.008;2022-12-29T19:07:50;0.98;;;0.88;;
29006;SDS011;16104;48.642;9.008;2022-12-29T19:12:47;1.63;;;1.00;;
29006;SDS011;16104;48.642;9.008;2022-12-29T19:17:43;1.95;;;0.80;;
29006;SDS011;16104;48.642;9.008;2022-12-29T19:22:38;1.58;;;0.82;;
29006;SDS011;16104;48.642;9.008;2022-12-29T19:27:34;1.67;;;0.80;;
29006;SDS011;16104;48.642;9.008;2022-12-29T19:32:29;1.55;;;0.85;;
29006;SDS011;16104;48.642;9.008;2022-12-29T19:37:25;2.45;;;0.90;;
29006;SDS011;16104;48.642;9.008;2022-12-29T19:42:20;1.88;;;0.80;;
29006;SDS011;16104;48.642;9.008;2022-12-29T19:47:16;2.08;;;0.80;;
29006;SDS011;16104;48.642;9.008;2022-12-29T19:52:11;1.20;;;0.80;;
29006;SDS011;16104;48.642;9.008;2022-12-29T19:57:07;3.08;;;0.80;;
29006;SDS011;16104;48.642;9.008;2022-12-29T20:02:02;1.45;;;0.70;;
29006;SDS011;16104;48.642;9.008;2022-12-29T20:06:58;3.25;;;0.90;;
29006;SDS011;16104;48.642;9.008;2022-12-29T20:11:53;2.03;;;0.65;;
29006;SDS011;16104;48.642;9.008;2022-12-29T20:16:49;1.92;;;0.55;;
29006;SDS011;16104;48.642;9.008;2022-12-29T20:21:44;0.63;;;0.32;;
29006;SDS011;16104;48.642;9.008;2022-12-29T20:26:41;1.08;;;0.40;;
29006;SDS011;16104;48.642;9.008;2022-12-29T20:31:37;2.30;;;0.50;;
29006;SDS011;16104;48.642;9.008;2022-12-29T20:36:33;0.68;;;0.38;;
29006;SDS011;16104;48.642;9.008;2022-12-29T20:41:31;0.50;;;0.40;;
29006;SDS011;16104;48.642;9.008;2022-12-29T20:46:26;1.80;;;0.68;;
29006;SDS011;16104;48.642;9.008;2022-12-29T20:51:22;3.50;;;0.65;;
29006;SDS011;16104;48.642;9.008;2022-12-29T20:56:19;3.58;;;0.68;;
29006;SDS011;16104;48.642;9.008;2022-12-29T21:01:17;2.35;;;0.60;;
29006;SDS011;16104;48.642;9.008;2022-12-29T21:06:14;1.75;;;0.50;;
29006;SDS011;16104;48.642;9.008;2022-12-29T21:11:10;1.85;;;0.70;;
29006;SDS011;16104;48.642;9.008;2022-12-29T21:16:07;1.30;;;0.60;;
29006;SDS011;16104;48.642;9.008;2022-12-29T21:21:04;1.88;;;1.45;;
29006;SDS011;16104;48.642;9.008;2022-12-29T21:26:05;1.85;;;0.68;;
29006;SDS011;16104;48.642;9.008;2022-12-29T21:31:11;0.80;;;0.50;;
29006;SDS011;16104;48.642;9.008;2022-12-29T21:36:20;1.20;;;0.63;;
29006;SDS011;16104;48.642;9.008;2022-12-29T21:41:16;4.18;;;0.52;;
29006;SDS011;16104;48.642;9.008;2022-12-29T21:46:11;0.47;;;0.45;;
29006;SDS011;16104;48.642;9.008;2022-12-29T21:51:11;0.43;;;0.10;;
29006;SDS011;16104;48.642;9.008;2022-12-29T21:56:26;0.55;;;0.20;;
29006;SDS011;16104;48.642;9.008;2022-12-29T22:01:21;0.38;;;0.38;;
29006;SDS011;16104;48.642;9.008;2022-12-29T22:06:36;0.75;;;0.60;;
29006;SDS011;16104;48.642;9.008;2022-12-29T22:11:50;0.60;;;0.30;;
29006;SDS011;16104;48.642;9.008;2022-12-29T22:17:04;0.40;;;0.30;;
29006;SDS011;16104;48.642;9.008;2022-12-29T22:22:00;0.50;;;0.38;;
29006;SDS011;16104;48.642;9.008;2022-12-29T22:26:55;1.25;;;0.50;;
29006;SDS011;16104;48.642;9.008;2022-12-29T22:31:51;0.63;;;0.50;;
29006;SDS011;16104;48.642;9.008;2022-12-29T22:36:46;0.40;;;0.40;;
29006;SDS011;16104;48.642;9.008;2022-12-29T22:41:42;0.57;;;0.50;;
29006;SDS011;16104;48.642;9.008;2022-12-29T22:46:37;0.70;;;0.30;;
29006;SDS011;16104;48.642;9.008;2022-12-29T22:51:33;0.75;;;0.30;;
29006;SDS011;16104;48.642;9.008;2022-12-29T22:56:28;0.30;;;0.30;;
29006;SDS011;16104;48.642;9.008;2022-12-29T23:01:24;0.17;;;0.17;;
29006;SDS011;16104;48.642;9.008;2022-12-29T23:06:19;0.30;;;0.30;;
29006;SDS011;16104;48.642;9.008;2022-12-29T23:11:15;0.85;;;0.45;;
29006;SDS011;16104;48.642;9.008;2022-12-29T23:16:11;0.25;;;0.25;;
29006;SDS011;16104;48.642;9.008;2022-12-29T23:21:07;0.50;;;0.35;;
29006;SDS011;16104;48.642;9.008;2022-12-29T23:26:03;0.50;;;0.20;;
29006;SDS011;16104;48.642;9.008;2022-12-29T23:30:59;1.08;;;0.30;;
29006;SDS011;16104;48.642;9.008;2022-12-29T23:35:55;0.38;;;0.38;;
29006;SDS011;16104;48.642;9.008;2022-12-29T23:40:50;0.38;;;0.30;;
29006;SDS011;16104;48.642;9.008;2022-12-29T23:45:46;0.47;;;0.30;;
29006;SDS011;16104;48.642;9.008;2022-12-29T23:50:41;0.60;;;0.30;;
29006;SDS011;16104;48.642;9.008;2022-12-29T23:55:40;1.27;;;0.50;;
